Time;durP1;ratioP1;P1;durP2;ratioP2;P2;SDS_P1;SDS_P2;PMS_P1;PMS_P2;Temp;Humidity;BMP_temperature;BMP_pressure;BME280_temperature;BME280_humidity;BME280_pressure;Samples;Min_cycle;Max_cycle;Signal;HPM_P1;HPM_P2
2022/09/14 00:08:21;;;;;;;0.63;0.30;;;22.00;57.70;;;;;;20664600;28;20030;-74
2022/09/14 00:18:23;;;;;;;0.28;0.28;;;22.00;57.70;;;;;;20648388;28;20436;-74
2022/09/14 00:28:24;;;;;;;1.70;0.40;;;22.00;57.70;;;;;;20647166;28;20504;-75
2022/09/14 00:38:25;;;;;;;2.60;0.75;;;22.00;57.60;;;;;;20646536;28;20051;-74
2022/09/14 00:48:27;;;;;;;0.93;0.30;;;22.00;57.50;;;;;;20629618;28;20453;-74
2022/09/14 00:58:27;;;;;;;0.40;0.28;;;22.00;57.50;;;;;;20661079;28;20097;-74
2022/09/14 01:08:38;;;;;;;1.95;0.30;;;22.00;57.40;;;;;;20628717;28;20040;-75
2022/09/14 01:18:59;;;;;;;0.85;0.40;;;22.00;57.30;;;;;;20643460;28;20038;-75
2022/09/14 01:29:07;;;;;;;1.48;0.45;;;21.90;57.20;;;;;;20642718;28;20057;-75
2022/09/14 01:39:08;;;;;;;0.68;0.35;;;22.00;57.30;;;;;;21009523;23;20039;-74
2022/09/14 01:49:15;;;;;;;0.98;0.40;;;21.90;57.10;;;;;;20642810;28;20045;-73
2022/09/14 01:59:19;;;;;;;0.20;0.20;;;22.00;57.20;;;;;;20627277;28;20049;-73
2022/09/14 02:09:21;;;;;;;0.65;0.40;;;21.90;57.00;;;;;;20642456;28;20034;-74
2022/09/14 02:19:23;;;;;;;2.53;0.60;;;22.00;56.90;;;;;;20641747;28;20038;-74
2022/09/14 02:29:23;;;;;;;1.05;0.30;;;22.10;56.40;;;;;;20672784;28;20121;-74
2022/09/14 02:39:47;;;;;;;0.20;0.20;;;22.30;56.00;;;;;;20624105;28;20576;-74
2022/09/14 02:49:55;;;;;;;1.52;0.40;;;22.40;55.60;;;;;;20658301;28;20084;-74
2022/09/14 02:59:56;;;;;;;2.45;1.98;;;22.50;55.10;;;;;;20638863;28;20646;-74
2022/09/14 03:09:57;;;;;;;1.15;0.40;;;22.60;54.80;;;;;;20652296;28;20038;-73
2022/09/14 03:19:57;;;;;;;0.70;0.38;;;22.70;54.50;;;;;;20653768;28;20049;-72
2022/09/14 03:29:58;;;;;;;0.40;0.30;;;22.80;54.10;;;;;;20636310;28;20042;-73
2022/09/14 03:39:58;;;;;;;0.57;0.35;;;22.70;54.00;;;;;;20667594;28;20041;-74
2022/09/14 03:49:59;;;;;;;0.88;0.30;;;22.50;54.20;;;;;;20634367;28;20042;-72
2022/09/14 03:59:59;;;;;;;0.30;0.28;;;22.40;54.50;;;;;;20632511;28;20125;-74
2022/09/14 04:10:00;;;;;;;0.35;0.28;;;22.30;54.80;;;;;;20633110;28;20428;-79
2022/09/14 04:20:01;;;;;;;0.20;0.20;;;22.10;55.00;;;;;;20616122;28;20097;-72
2022/09/14 04:30:01;;;;;;;0.43;0.25;;;22.00;55.10;;;;;;20647564;28;20393;-76
2022/09/14 04:40:02;;;;;;;0.50;0.28;;;22.00;55.40;;;;;;20615110;28;20051;-73
2022/09/14 04:50:03;;;;;;;0.30;0.30;;;21.90;55.50;;;;;;20656840;28;20038;-76
2022/09/14 05:00:04;;;;;;;1.77;0.40;;;21.80;55.40;;;;;;20612605;28;20329;-75
2022/09/14 05:10:06;;;;;;;0.88;0.30;;;21.80;55.40;;;;;;20588188;28;20112;-77
2022/09/14 05:20:07;;;;;;;0.50;0.28;;;21.80;55.40;;;;;;20587484;28;20034;-73
2022/09/14 05:30:08;;;;;;;1.63;0.50;;;21.80;56.00;;;;;;20658021;28;20045;-75
2022/09/14 05:40:09;;;;;;;1.92;0.95;;;21.70;55.40;;;;;;20547156;28;20125;-76
2022/09/14 05:50:10;;;;;;;0.60;0.22;;;21.80;55.40;;;;;;20599068;28;20629;-76
2022/09/14 06:00:11;;;;;;;2.47;0.43;;;21.70;55.30;;;;;;20625152;28;20092;-76
2022/09/14 06:10:14;;;;;;;0.60;0.38;;;21.70;55.40;;;;;;20652386;28;20475;-75
2022/09/14 06:20:17;;;;;;;2.30;0.30;;;21.80;55.30;;;;;;20636898;28;20145;-75
2022/09/14 06:30:18;;;;;;;2.70;0.57;;;21.80;55.30;;;;;;20656848;28;20447;-75
2022/09/14 06:40:18;;;;;;;0.57;0.40;;;21.80;55.20;;;;;;20647149;28;20125;-75
2022/09/14 06:50:19;;;;;;;1.02;0.40;;;21.80;55.30;;;;;;20655585;28;20037;-74
2022/09/14 07:00:20;;;;;;;0.30;0.30;;;21.80;55.40;;;;;;20668389;28;20125;-76
2022/09/14 07:10:20;;;;;;;4.13;0.60;;;21.80;55.40;;;;;;20653514;28;20400;-75
2022/09/14 07:20:21;;;;;;;2.17;0.47;;;21.80;55.50;;;;;;20652272;28;20045;-75
2022/09/14 07:30:23;;;;;;;1.30;0.43;;;21.80;55.50;;;;;;20651438;28;20034;-75
2022/09/14 07:40:25;;;;;;;4.30;0.77;;;21.80;55.50;;;;;;20636030;28;20581;-75
2022/09/14 07:50:25;;;;;;;1.25;0.35;;;21.80;55.50;;;;;;20665921;28;20561;-75
2022/09/14 08:00:26;;;;;;;0.32;0.28;;;21.90;55.50;;;;;;20617013;28;20129;-75
2022/09/14 08:10:26;;;;;;;0.35;0.30;;;21.90;55.50;;;;;;20664415;28;20050;-75
2022/09/14 08:20:27;;;;;;;2.30;0.30;;;21.90;55.40;;;;;;20662737;28;20137;-75
2022/09/14 08:30:27;;;;;;;0.68;0.40;;;21.90;55.40;;;;;;20631267;28;20065;-75
2022/09/14 08:40:28;;;;;;;0.93;0.43;;;22.00;55.40;;;;;;20629769;28;20129;-73
2022/09/14 08:50:28;;;;;;;3.47;0.50;;;22.00;55.40;;;;;;20645282;28;20069;-72
2022/09/14 09:00:52;;;;;;;1.17;0.30;;;22.00;55.30;;;;;;20643629;28;20046;-72
2022/09/14 09:10:53;;;;;;;2.10;0.50;;;22.00;55.30;;;;;;20649265;28;20133;-73
2022/09/14 09:21:00;;;;;;;0.95;0.43;;;22.10;55.30;;;;;;20643214;28;20054;-73
2022/09/14 09:31:03;;;;;;;1.02;0.40;;;22.10;55.30;;;;;;20643454;28;20070;-73
2022/09/14 09:41:29;;;;;;;2.30;0.38;;;22.00;55.20;;;;;;20629780;28;20061;-72
2022/09/14 09:51:30;;;;;;;2.20;0.28;;;22.00;55.50;;;;;;20609078;28;20037;-71
2022/09/14 10:01:33;;;;;;;2.13;0.35;;;22.00;55.30;;;;;;20640573;28;20752;-71
2022/09/14 10:11:36;;;;;;;1.52;0.60;;;22.00;55.30;;;;;;20641527;28;20548;-72
2022/09/14 10:21:37;;;;;;;1.58;0.40;;;22.00;55.30;;;;;;20654996;28;20042;-72
2022/09/14 10:31:37;;;;;;;3.50;0.50;;;22.00;55.30;;;;;;20633964;28;20577;-73
2022/09/14 10:42:00;;;;;;;4.45;0.50;;;22.00;55.30;;;;;;20654745;28;20070;-72
2022/09/14 10:52:42;;;;;;;1.25;0.40;;;22.00;55.20;;;;;;20654580;28;20037;-72
2022/09/14 11:03:10;;;;;;;1.25;0.43;;;22.00;55.20;;;;;;20657981;28;20412;-75
2022/09/14 11:13:37;;;;;;;0.45;0.35;;;22.00;55.20;;;;;;20668934;28;20117;-75
2022/09/14 11:23:54;;;;;;;2.53;0.60;;;21.90;55.10;;;;;;20646080;28;20121;-75
2022/09/14 11:33:59;;;;;;;3.15;1.02;;;21.90;55.10;;;;;;20651492;28;20496;-76
2022/09/14 11:44:04;;;;;;;;;;;21.90;55.00;;;;;;20635515;28;20046;-74
2022/09/14 11:54:15;;;;;;;1.27;0.40;;;21.90;55.00;;;;;;20647199;28;20277;-75
2022/09/14 12:04:16;;;;;;;1.17;0.57;;;21.90;55.00;;;;;;20616388;28;20177;-76
2022/09/14 12:14:23;;;;;;;1.75;0.50;;;21.90;55.10;;;;;;20611239;28;20141;-75
2022/09/14 12:24:23;;;;;;;0.88;0.30;;;21.90;55.10;;;;;;20654358;28;20038;-75
2022/09/14 12:34:30;;;;;;;2.30;0.77;;;21.90;55.10;;;;;;20645714;28;20045;-73
2022/09/14 12:44:40;;;;;;;4.13;0.70;;;21.90;55.20;;;;;;20613941;28;20305;-72
2022/09/14 12:54:49;;;;;;;1.42;0.75;;;21.90;55.30;;;;;;20645202;28;20652;-73
2022/09/14 13:04:54;;;;;;;4.57;0.98;;;21.90;55.30;;;;;;20639839;28;20373;-75
2022/09/14 13:14:56;;;;;;;2.23;0.57;;;21.90;55.30;;;;;;20644008;28;20045;-74
2022/09/14 13:24:58;;;;;;;1.92;0.55;;;21.90;55.40;;;;;;20610328;28;20408;-73
2022/09/14 13:34:58;;;;;;;1.85;0.60;;;21.90;55.40;;;;;;20607338;28;20760;-74
2022/09/14 13:44:59;;;;;;;2.88;0.52;;;21.80;55.40;;;;;;20659031;28;20038;-74
2022/09/14 13:55:19;;;;;;;0.80;0.43;;;21.80;55.50;;;;;;20652881;28;20113;-73
2022/09/14 14:05:33;;;;;;;2.10;0.60;;;21.80;55.50;;;;;;20667215;28;20042;-74
2022/09/14 14:15:41;;;;;;;1.50;0.68;;;21.80;55.50;;;;;;20651981;28;20540;-75
2022/09/14 14:25:43;;;;;;;2.55;0.82;;;21.80;55.60;;;;;;20668712;28;20038;-75
2022/09/14 14:35:49;;;;;;;1.70;0.88;;;21.80;55.60;;;;;;20666382;28;20373;-75
2022/09/14 14:46:00;;;;;;;1.25;0.55;;;21.80;55.70;;;;;;20665854;28;20038;-74
2022/09/14 14:56:00;;;;;;;0.95;0.50;;;21.70;55.70;;;;;;20668057;28;20037;-74
2022/09/14 15:06:14;;;;;;;4.60;0.60;;;21.90;55.40;;;;;;20668630;28;20050;-78
2022/09/14 15:16:15;;;;;;;1.40;0.60;;;21.90;55.30;;;;;;20632536;28;20034;-73
2022/09/14 15:26:15;;;;;;;5.87;0.80;;;21.90;55.30;;;;;;20664891;28;20527;-72
2022/09/14 15:36:35;;;;;;;6.00;0.63;;;21.90;55.50;;;;;;20651399;28;20038;-76
2022/09/14 15:46:37;;;;;;;4.75;1.17;;;21.90;55.70;;;;;;20645376;28;20050;-74
2022/09/14 15:56:38;;;;;;;3.67;1.02;;;21.80;55.80;;;;;;20633179;28;20396;-72
2022/09/14 16:06:39;;;;;;;5.88;1.80;;;21.70;56.00;;;;;;20648559;28;20041;-74
2022/09/14 16:16:40;;;;;;;5.27;0.80;;;21.70;56.20;;;;;;20641680;28;20117;-78
2022/09/14 16:26:41;;;;;;;1.98;0.70;;;21.60;56.30;;;;;;20661978;28;20308;-76
2022/09/14 16:36:42;;;;;;;4.00;0.90;;;21.60;56.40;;;;;;20659642;28;21587;-74
2022/09/14 16:46:43;;;;;;;3.42;0.90;;;21.60;56.50;;;;;;20649222;28;20038;-77
2022/09/14 16:56:43;;;;;;;1.40;0.75;;;21.60;56.50;;;;;;20644293;28;20040;-76
2022/09/14 17:06:44;;;;;;;1.27;0.60;;;21.60;56.60;;;;;;20624490;28;20046;-76
2022/09/14 17:16:45;;;;;;;1.90;0.57;;;21.60;56.70;;;;;;20627768;28;20384;-75
2022/09/14 17:26:46;;;;;;;4.28;0.70;;;21.90;56.20;;;;;;20614179;28;20042;-78
2022/09/14 17:36:47;;;;;;;3.00;0.73;;;22.60;54.50;;;;;;20595192;28;20046;-73
2022/09/14 17:46:49;;;;;;;1.95;0.85;;;22.80;54.00;;;;;;20631246;28;20050;-71
2022/09/14 17:56:49;;;;;;;2.58;0.77;;;22.80;54.00;;;;;;20640697;28;20444;-71
2022/09/14 18:06:50;;;;;;;1.17;0.63;;;22.70;54.00;;;;;;20637752;28;20050;-71
2022/09/14 18:16:51;;;;;;;2.50;0.93;;;22.60;54.00;;;;;;20639397;28;20037;-72
2022/09/14 18:26:52;;;;;;;1.90;0.90;;;22.40;54.30;;;;;;20631802;28;20046;-72
2022/09/14 18:36:52;;;;;;;5.57;0.67;;;22.30;54.70;;;;;;20630180;28;20042;-73
2022/09/14 18:46:53;;;;;;;1.17;0.70;;;22.20;55.00;;;;;;20651139;28;20416;-72
2022/09/14 18:56:53;;;;;;;1.60;0.85;;;22.20;55.20;;;;;;20557911;28;20166;-72
2022/09/14 19:06:54;;;;;;;2.05;0.95;;;22.10;55.40;;;;;;20606038;28;20034;-71
2022/09/14 19:16:56;;;;;;;2.00;0.70;;;22.10;55.40;;;;;;20648835;28;20034;-70
2022/09/14 19:26:57;;;;;;;1.25;0.60;;;22.10;55.50;;;;;;20663102;28;20053;-72
2022/09/14 19:36:57;;;;;;;1.43;0.80;;;22.00;55.50;;;;;;20647929;28;20037;-71
2022/09/14 19:46:58;;;;;;;0.83;0.60;;;22.00;55.60;;;;;;20647624;28;20041;-71
2022/09/14 19:56:58;;;;;;;1.33;0.73;;;22.00;55.60;;;;;;20643937;28;20042;-73
2022/09/14 20:06:59;;;;;;;2.45;0.90;;;22.00;55.60;;;;;;20645506;28;20293;-71
2022/09/14 20:17:00;;;;;;;1.55;0.60;;;22.00;55.60;;;;;;20632719;28;20030;-72
2022/09/14 20:27:01;;;;;;;0.70;0.70;;;22.00;55.60;;;;;;20647959;28;20050;-72
2022/09/14 20:37:01;;;;;;;1.02;0.47;;;22.00;55.60;;;;;;20646843;28;20065;-71
2022/09/14 20:47:02;;;;;;;1.02;0.70;;;22.00;55.60;;;;;;20646604;28;20133;-73
2022/09/14 20:57:02;;;;;;;1.60;0.52;;;22.00;55.60;;;;;;20645770;28;20030;-72
2022/09/14 21:07:03;;;;;;;1.77;0.60;;;22.00;55.60;;;;;;20629387;28;20054;-71
2022/09/14 21:17:03;;;;;;;1.83;1.00;;;22.00;55.60;;;;;;20628552;28;20644;-72
2022/09/14 21:27:04;;;;;;;2.63;0.90;;;21.90;55.60;;;;;;20627462;28;20061;-72
2022/09/14 21:37:05;;;;;;;1.95;0.60;;;21.90;55.60;;;;;;20624329;28;20117;-72
2022/09/14 21:47:05;;;;;;;1.67;0.88;;;21.80;55.60;;;;;;20642687;28;20034;-73
2022/09/14 21:57:06;;;;;;;0.93;0.60;;;21.90;55.60;;;;;;20626631;28;20129;-72
2022/09/14 22:07:07;;;;;;;1.15;0.65;;;21.90;55.60;;;;;;20627996;28;20347;-72
2022/09/14 22:17:07;;;;;;;1.35;0.55;;;21.90;55.60;;;;;;20658129;28;20038;-71
2022/09/14 22:27:08;;;;;;;1.92;0.75;;;21.90;55.70;;;;;;20673392;28;20052;-72
2022/09/14 22:37:09;;;;;;;1.48;0.68;;;21.90;55.70;;;;;;20657841;28;20077;-74
2022/09/14 22:47:09;;;;;;;0.90;0.67;;;21.80;55.70;;;;;;20657091;28;20085;-72
2022/09/14 22:57:10;;;;;;;1.45;0.98;;;21.80;55.70;;;;;;20655425;28;20398;-71
2022/09/14 23:07:10;;;;;;;1.65;0.52;;;21.80;55.80;;;;;;20655362;28;20053;-71
2022/09/14 23:17:11;;;;;;;2.22;0.80;;;21.80;55.80;;;;;;20669731;28;20042;-71
2022/09/14 23:27:12;;;;;;;1.98;0.60;;;21.80;55.80;;;;;;20652165;28;20042;-72
2022/09/14 23:37:13;;;;;;;3.65;0.65;;;21.70;55.80;;;;;;20652773;28;20042;-72
2022/09/14 23:47:13;;;;;;;1.75;0.65;;;21.80;55.90;;;;;;20635119;28;20416;-72
2022/09/14 23:57:14;;;;;;;1.50;0.85;;;21.80;55.90;;;;;;20634957;28;20243;-71
